createdAt,value
2023-01-15T00:04:33.785Z,94944.44
2023-01-15T00:09:35.250Z,94936.31
2023-01-15T00:14:36.782Z,94920.63
2023-01-15T00:19:38.323Z,94921.28
2023-01-15T00:24:39.887Z,94931.53
2023-01-15T00:29:41.357Z,94921.63
2023-01-15T00:34:42.825Z,94919.00
2023-01-15T00:39:44.323Z,94911.41
2023-01-15T00:44:45.845Z,94899.78
2023-01-15T00:49:47.370Z,94905.25
2023-01-15T00:54:48.913Z,94902.06
2023-01-15T00:59:50.517Z,94909.56
2023-01-15T01:04:53.161Z,94917.59
2023-01-15T01:09:54.621Z,94907.22
2023-01-15T01:14:56.107Z,94892.19
2023-01-15T01:19:58.348Z,94910.84
2023-01-15T01:24:59.829Z,94912.69
2023-01-15T01:30:01.670Z,94882.47
2023-01-15T01:35:03.298Z,94879.34
2023-01-15T01:40:05.706Z,94892.25
2023-01-15T01:45:18.233Z,94871.44
2023-01-15T01:50:21.118Z,94865.31
2023-01-15T01:55:24.949Z,94874.75
2023-01-15T02:00:29.907Z,94836.75
2023-01-15T02:05:33.911Z,94829.63
2023-01-15T02:10:35.513Z,94829.97
2023-01-15T02:15:43.319Z,94828.13
2023-01-15T02:20:53.719Z,94823.53
2023-01-15T02:26:06.990Z,94824.38
2023-01-15T02:31:24.626Z,94809.81
2023-01-15T02:36:31.541Z,94795.44
2023-01-15T02:41:40.412Z,94793.31
2023-01-15T02:46:45.061Z,94788.81
2023-01-15T02:51:54.640Z,94782.03
2023-01-15T02:56:59.589Z,94774.16
2023-01-15T03:02:05.562Z,94743.53
2023-01-15T03:07:46.915Z,94758.78
2023-01-15T03:13:01.544Z,94756.16
2023-01-15T03:18:10.897Z,94761.59
2023-01-15T03:23:16.217Z,94771.44
2023-01-15T03:28:24.017Z,94759.22
2023-01-15T03:33:25.657Z,94751.94
2023-01-15T03:38:33.011Z,94730.59
2023-01-15T03:43:46.226Z,94718.88
2023-01-15T03:49:03.983Z,94720.06
2023-01-15T03:54:15.857Z,94715.72
2023-01-15T03:59:28.096Z,94719.72
2023-01-15T04:04:36.370Z,94703.69
2023-01-15T04:09:40.622Z,94722.66
2023-01-15T04:14:45.274Z,94712.75
2023-01-15T04:19:52.115Z,94720.63
2023-01-15T04:24:53.765Z,94743.56
2023-01-15T04:29:55.345Z,94752.91
2023-01-15T04:34:56.859Z,94736.41
2023-01-15T04:39:58.406Z,94733.84
2023-01-15T04:44:59.983Z,94723.69
2023-01-15T04:50:01.571Z,94723.44
2023-01-15T04:55:04.609Z,94715.03
2023-01-15T05:00:06.847Z,94723.06
2023-01-15T05:05:08.705Z,94715.66
2023-01-15T05:10:10.786Z,94713.16
2023-01-15T05:15:12.293Z,94716.03
2023-01-15T05:20:13.877Z,94709.94
2023-01-15T05:25:15.763Z,94723.16
2023-01-15T05:30:17.617Z,94718.19
2023-01-15T05:35:19.197Z,94722.00
2023-01-15T05:40:20.713Z,94733.31
2023-01-15T05:45:22.226Z,94719.38
2023-01-15T05:50:23.754Z,94715.28
2023-01-15T05:55:25.263Z,94712.78
2023-01-15T06:00:28.254Z,94720.13
2023-01-15T06:05:31.191Z,94715.78
2023-01-15T06:10:32.692Z,94690.25
2023-01-15T06:15:34.218Z,94674.16
2023-01-15T06:20:40.563Z,94663.81
2023-01-15T06:25:42.010Z,94657.81
2023-01-15T06:30:43.455Z,94658.78
2023-01-15T06:35:44.886Z,94650.56
2023-01-15T06:40:46.467Z,94654.13
2023-01-15T06:45:48.090Z,94655.69
2023-01-15T06:50:49.591Z,94659.00
2023-01-15T06:55:51.439Z,94666.44
2023-01-15T07:00:52.992Z,94640.75
2023-01-15T07:05:54.515Z,94618.63
2023-01-15T07:10:56.053Z,94609.28
2023-01-15T07:16:01.982Z,94615.69
2023-01-15T07:21:03.555Z,94601.09
2023-01-15T07:26:05.189Z,94583.44
2023-01-15T07:31:06.785Z,94573.41
2023-01-15T07:36:08.610Z,94572.34
2023-01-15T07:41:10.069Z,94582.97
2023-01-15T07:46:11.580Z,94569.59
2023-01-15T07:51:13.091Z,94561.53
2023-01-15T07:56:15.111Z,94554.22
2023-01-15T08:01:16.716Z,94562.25
2023-01-15T08:06:18.337Z,94544.72
2023-01-15T08:11:19.885Z,94548.81
2023-01-15T08:16:21.474Z,94555.22
2023-01-15T08:21:22.966Z,94568.19
2023-01-15T08:26:24.433Z,94576.66
2023-01-15T08:31:25.914Z,94557.97
2023-01-15T08:36:27.497Z,94574.13
2023-01-15T08:41:28.999Z,94605.38
2023-01-15T08:46:30.435Z,94628.44
2023-01-15T08:51:31.883Z,94661.91
2023-01-15T08:56:33.385Z,94673.72
2023-01-15T09:01:35.416Z,94715.53
2023-01-15T09:06:36.908Z,94749.81
2023-01-15T09:11:38.936Z,94799.03
2023-01-15T09:16:40.710Z,94798.78
2023-01-15T09:21:42.239Z,94835.19
2023-01-15T09:26:43.748Z,94849.88
2023-01-15T09:31:45.274Z,94853.59
2023-01-15T09:36:47.318Z,94858.34
2023-01-15T09:42:11.840Z,94889.78
2023-01-15T09:47:55.422Z,94906.81
2023-01-15T09:53:13.011Z,94929.06
2023-01-15T09:58:19.431Z,94941.78
2023-01-15T10:03:37.458Z,94955.97
2023-01-15T10:08:46.362Z,94974.69
2023-01-15T10:13:49.739Z,94983.63
2023-01-15T10:18:52.101Z,94993.00
2023-01-15T10:24:15.184Z,95011.34
2023-01-15T10:29:31.428Z,95040.56
2023-01-15T10:34:38.805Z,95042.50
2023-01-15T10:39:46.031Z,95056.56
2023-01-15T10:45:14.681Z,95078.09
2023-01-15T10:50:19.428Z,95098.59
2023-01-15T10:55:29.104Z,95107.91
2023-01-15T11:00:31.030Z,95130.66
2023-01-15T11:05:33.635Z,95150.38
2023-01-15T11:10:35.150Z,95155.22
2023-01-15T11:15:37.261Z,95169.34
2023-01-15T11:20:47.709Z,95183.66
2023-01-15T11:25:55.420Z,95190.50
2023-01-15T11:30:56.926Z,95199.59
2023-01-15T11:36:01.847Z,95212.66
2023-01-15T11:41:03.391Z,95232.63
2023-01-15T11:46:04.985Z,95243.97
2023-01-15T11:51:09.301Z,95244.66
2023-01-15T11:56:15.169Z,95259.22
2023-01-15T12:01:35.872Z,95256.97
2023-01-15T12:06:40.806Z,95272.09
2023-01-15T12:11:47.923Z,95273.00
2023-01-15T12:17:01.204Z,95288.22
2023-01-15T12:22:13.222Z,95287.56
2023-01-15T12:27:31.012Z,95300.63
2023-01-15T12:32:43.303Z,95311.69
2023-01-15T12:37:50.654Z,95312.88
2023-01-15T12:42:54.142Z,95319.22
2023-01-15T12:48:12.359Z,95322.16
2023-01-15T12:53:22.778Z,95320.78
2023-01-15T12:58:45.218Z,95332.31
2023-01-15T13:04:13.036Z,95333.69
2023-01-15T13:09:28.506Z,95346.94
2023-01-15T13:14:30.288Z,95354.22
2023-01-15T13:19:44.723Z,95358.91
2023-01-15T13:25:01.329Z,95353.25
2023-01-15T13:30:22.034Z,95350.53
2023-01-15T13:35:37.510Z,95338.41
2023-01-15T13:40:43.087Z,95333.53
2023-01-15T13:45:50.499Z,95344.84
2023-01-15T13:50:54.972Z,95329.44
2023-01-15T13:56:02.162Z,95327.16
2023-01-15T14:01:33.181Z,95324.75
2023-01-15T14:06:37.198Z,95338.41
2023-01-15T14:11:57.658Z,95341.25
2023-01-15T14:17:29.359Z,95335.75
2023-01-15T14:22:49.139Z,95347.78
2023-01-15T14:28:07.449Z,95321.13
2023-01-15T14:33:50.327Z,95340.44
2023-01-15T14:38:57.052Z,95356.09
2023-01-15T14:44:01.291Z,95348.66
2023-01-15T14:49:02.981Z,95354.81
2023-01-15T14:54:10.113Z,95361.28
2023-01-15T14:59:25.837Z,95377.38
2023-01-15T15:04:36.202Z,95381.00
2023-01-15T15:09:45.500Z,95388.38
2023-01-15T15:15:11.989Z,95383.19
2023-01-15T15:20:48.772Z,95375.66
2023-01-15T15:26:02.387Z,95373.66
2023-01-15T15:31:04.009Z,95364.09
2023-01-15T15:36:07.590Z,95356.72
2023-01-15T15:41:12.453Z,95356.59
2023-01-15T15:46:29.184Z,95361.59
2023-01-15T15:51:35.135Z,95360.25
2023-01-15T15:56:37.650Z,95348.34
2023-01-15T16:01:39.635Z,95343.56
2023-01-15T16:06:41.232Z,95346.06
2023-01-15T16:11:42.819Z,95344.63
2023-01-15T16:16:45.006Z,95349.28
2023-01-15T16:21:46.850Z,95359.88
2023-01-15T16:26:56.116Z,95346.47
2023-01-15T16:31:58.944Z,95363.69
2023-01-15T16:37:02.128Z,95362.84
2023-01-15T16:42:03.944Z,95361.00
2023-01-15T16:47:06.425Z,95337.13
2023-01-15T16:52:36.717Z,95332.75
2023-01-15T16:57:38.246Z,95326.19
2023-01-15T17:02:46.528Z,95316.50
2023-01-15T17:07:49.830Z,95317.22
2023-01-15T17:12:52.257Z,95309.28
2023-01-15T17:17:55.392Z,95307.41
2023-01-15T17:22:56.977Z,95304.94
2023-01-15T17:27:59.925Z,95307.88
2023-01-15T17:33:03.887Z,95298.50
2023-01-15T17:38:05.765Z,95303.00
2023-01-15T17:43:07.367Z,95317.56
2023-01-15T17:48:09.615Z,95311.97
2023-01-15T17:53:11.069Z,95325.81
2023-01-15T17:58:13.226Z,95320.25
2023-01-15T18:03:18.906Z,95309.94
2023-01-15T18:08:20.399Z,95312.03
2023-01-15T18:13:21.908Z,95316.03
2023-01-15T18:18:23.410Z,95297.31
2023-01-15T18:23:24.938Z,95295.19
2023-01-15T18:28:26.385Z,95284.34
2023-01-15T18:33:27.916Z,95266.84
2023-01-15T18:38:29.371Z,95278.22
2023-01-15T18:43:30.851Z,95277.00
2023-01-15T18:48:32.666Z,95280.56
2023-01-15T18:53:34.115Z,95280.19
2023-01-15T18:58:35.640Z,95267.34
2023-01-15T19:03:37.113Z,95262.78
2023-01-15T19:08:38.607Z,95258.66
2023-01-15T19:13:40.104Z,95251.28
2023-01-15T19:18:41.538Z,95242.44
2023-01-15T19:23:43.051Z,95238.94
2023-01-15T19:28:44.561Z,95232.34
2023-01-15T19:33:46.225Z,95241.53
2023-01-15T19:38:47.764Z,95236.69
2023-01-15T19:43:49.228Z,95220.94
2023-01-15T19:48:50.899Z,95215.88
2023-01-15T19:53:52.390Z,95215.94
2023-01-15T19:58:53.839Z,95203.28
2023-01-15T20:03:55.296Z,95193.25
2023-01-15T20:08:56.794Z,95185.25
2023-01-15T20:13:58.304Z,95179.03
2023-01-15T20:18:59.819Z,95166.66
2023-01-15T20:24:01.381Z,95158.72
2023-01-15T20:29:02.850Z,95156.38
2023-01-15T20:34:04.369Z,95150.03
2023-01-15T20:39:05.844Z,95138.69
2023-01-15T20:44:07.382Z,95132.59
2023-01-15T20:49:08.840Z,95117.72
2023-01-15T20:54:10.332Z,95117.13
2023-01-15T20:59:11.834Z,95106.50
2023-01-15T21:04:13.400Z,95097.06
2023-01-15T21:09:14.863Z,95084.41
2023-01-15T21:14:16.347Z,95068.66
2023-01-15T21:19:18.451Z,95065.59
2023-01-15T21:24:20.039Z,95052.50
2023-01-15T21:29:21.506Z,95051.25
2023-01-15T21:34:23.245Z,95043.41
2023-01-15T21:39:24.822Z,95043.22
2023-01-15T21:44:26.482Z,95032.75
2023-01-15T21:49:28.214Z,95030.16
2023-01-15T21:54:31.248Z,95023.63
2023-01-15T21:59:32.802Z,95010.16
2023-01-15T22:04:35.502Z,94997.56
2023-01-15T22:09:37.232Z,94981.81
2023-01-15T22:14:38.779Z,94972.72
2023-01-15T22:19:40.386Z,94959.34
2023-01-15T22:24:41.894Z,94961.50
2023-01-15T22:29:43.448Z,94941.06
2023-01-15T22:34:47.392Z,94938.28
2023-01-15T22:39:48.897Z,94925.16
2023-01-15T22:44:51.248Z,94906.44
2023-01-15T22:49:52.702Z,94902.25
2023-01-15T22:54:54.264Z,94905.56
2023-01-15T22:59:55.782Z,94894.78
2023-01-15T23:04:57.287Z,94882.47
2023-01-15T23:09:58.777Z,94863.81
2023-01-15T23:15:00.215Z,94858.03
2023-01-15T23:20:01.733Z,94851.94
2023-01-15T23:25:03.743Z,94843.63
2023-01-15T23:30:05.749Z,94834.34
2023-01-15T23:35:08.379Z,94821.00
2023-01-15T23:40:10.410Z,94818.22
2023-01-15T23:45:11.925Z,94808.88
2023-01-15T23:50:13.388Z,94800.28
2023-01-15T23:55:14.922Z,94783.09
